createdAt,value
2018-05-25T00:01:53.962Z,16.29
2018-05-25T00:04:22.383Z,16.28
2018-05-25T00:06:50.418Z,16.32
2018-05-25T00:09:18.351Z,16.31
2018-05-25T00:11:46.317Z,16.42
2018-05-25T00:14:14.286Z,16.13
2018-05-25T00:16:42.243Z,16.06
2018-05-25T00:19:10.211Z,15.96
2018-05-25T00:21:38.178Z,16.18
2018-05-25T00:24:06.218Z,16.31
2018-05-25T00:26:34.373Z,16.22
2018-05-25T00:29:02.412Z,16.27
2018-05-25T00:31:30.391Z,16.49
2018-05-25T00:33:58.395Z,15.97
2018-05-25T00:36:26.335Z,15.72
2018-05-25T00:38:54.303Z,15.50
2018-05-25T00:41:22.263Z,15.56
2018-05-25T00:43:50.282Z,15.73
2018-05-25T00:46:18.297Z,15.77
2018-05-25T00:48:46.282Z,16.14
2018-05-25T00:51:14.278Z,15.81
2018-05-25T00:53:42.253Z,15.58
2018-05-25T00:56:10.226Z,15.63
2018-05-25T00:58:38.199Z,15.68
2018-05-25T01:01:06.280Z,15.89
2018-05-25T01:03:34.371Z,16.03
2018-05-25T01:06:02.704Z,16.29
2018-05-25T01:08:30.678Z,16.46
2018-05-25T01:10:58.653Z,16.02
2018-05-25T01:13:26.643Z,16.01
2018-05-25T01:15:54.661Z,15.73
2018-05-25T01:18:22.631Z,15.43
2018-05-25T01:20:50.606Z,15.31
2018-05-25T01:23:18.561Z,15.31
2018-05-25T01:25:46.546Z,15.41
2018-05-25T01:28:14.597Z,15.62
2018-05-25T01:30:42.591Z,15.59
2018-05-25T01:33:10.600Z,15.74
2018-05-25T01:35:38.599Z,15.64
2018-05-25T01:38:06.693Z,15.95
2018-05-25T01:40:34.703Z,16.13
2018-05-25T01:43:02.990Z,16.09
2018-05-25T01:45:30.890Z,16.59
2018-05-25T01:47:58.903Z,16.44
2018-05-25T01:50:26.926Z,16.75
2018-05-25T01:52:54.923Z,16.97
2018-05-25T01:55:22.869Z,17.00
2018-05-25T01:57:50.922Z,17.19
2018-05-25T02:00:18.842Z,17.34
2018-05-25T02:02:46.873Z,17.17
2018-05-25T02:05:14.895Z,17.39
2018-05-25T02:07:43.257Z,16.83
2018-05-25T02:10:11.282Z,16.66
2018-05-25T02:12:39.319Z,17.15
2018-05-25T02:15:07.326Z,16.88
2018-05-25T02:17:35.337Z,16.86
2018-05-25T02:20:03.440Z,17.17
2018-05-25T02:22:31.466Z,17.39
2018-05-25T02:24:59.450Z,16.88
2018-05-25T02:27:27.471Z,17.11
2018-05-25T02:29:55.436Z,17.05
2018-05-25T02:32:23.453Z,17.02
2018-05-25T02:34:51.453Z,17.34
2018-05-25T02:37:19.394Z,17.35
2018-05-25T02:39:47.458Z,17.50
2018-05-25T02:42:15.543Z,17.35
2018-05-25T02:44:43.530Z,16.40
2018-05-25T02:47:11.510Z,15.56
2018-05-25T02:49:39.462Z,15.86
2018-05-25T02:52:07.446Z,16.11
2018-05-25T02:54:35.407Z,16.65
2018-05-25T02:57:03.398Z,16.53
2018-05-25T02:59:31.329Z,15.73
2018-05-25T03:01:59.452Z,15.97
2018-05-25T03:04:27.406Z,15.98
2018-05-25T03:06:55.479Z,16.48
2018-05-25T03:09:23.698Z,16.77
2018-05-25T03:11:51.670Z,16.48
2018-05-25T03:14:19.706Z,16.45
2018-05-25T03:16:47.634Z,16.89
2018-05-25T03:19:15.656Z,17.00
2018-05-25T03:21:43.685Z,17.04
2018-05-25T03:24:11.683Z,17.19
2018-05-25T03:26:39.667Z,17.37
2018-05-25T03:29:07.695Z,17.48
2018-05-25T03:31:35.687Z,17.49
2018-05-25T03:34:03.638Z,17.58
2018-05-25T03:36:31.681Z,17.12
2018-05-25T03:38:59.687Z,17.18
2018-05-25T03:41:27.689Z,16.58
2018-05-25T03:43:55.727Z,16.62
2018-05-25T03:46:23.735Z,16.56
2018-05-25T03:48:51.703Z,16.58
2018-05-25T03:51:20.349Z,16.99
2018-05-25T03:53:48.368Z,17.29
2018-05-25T03:56:16.366Z,17.54
2018-05-25T03:58:55.994Z,16.95
2018-05-25T04:01:35.596Z,17.11
2018-05-25T04:04:05.310Z,16.98
2018-05-25T04:06:33.279Z,17.48
2018-05-25T04:09:01.218Z,17.76
2018-05-25T04:11:29.386Z,17.98
2018-05-25T04:13:57.320Z,16.99
2018-05-25T04:16:25.302Z,16.34
2018-05-25T04:18:53.299Z,16.23
2018-05-25T04:21:21.261Z,16.83
2018-05-25T04:23:49.223Z,17.35
2018-05-25T04:26:17.579Z,16.95
2018-05-25T04:28:45.593Z,16.02
2018-05-25T04:31:13.590Z,16.55
2018-05-25T04:33:41.719Z,17.10
2018-05-25T04:36:09.706Z,17.56
2018-05-25T04:38:37.674Z,17.95
2018-05-25T04:41:06.427Z,18.12
2018-05-25T04:43:34.442Z,17.55
2018-05-25T04:46:02.579Z,16.95
2018-05-25T04:48:30.552Z,17.09
2018-05-25T04:50:58.556Z,17.76
2018-05-25T04:53:26.470Z,17.64
2018-05-25T04:55:54.490Z,17.47
2018-05-25T04:58:22.507Z,18.10
2018-05-25T05:00:50.483Z,17.66
2018-05-25T05:03:18.510Z,17.12
2018-05-25T05:05:46.533Z,17.19
2018-05-25T05:08:14.433Z,17.77
2018-05-25T05:10:42.435Z,18.55
2018-05-25T05:13:10.687Z,18.60
2018-05-25T05:15:38.682Z,18.45
2018-05-25T05:18:06.674Z,18.02
2018-05-25T05:20:34.693Z,18.68
2018-05-25T05:23:02.729Z,18.30
2018-05-25T05:25:30.646Z,18.90
2018-05-25T05:27:58.554Z,19.48
2018-05-25T05:30:26.585Z,19.77
2018-05-25T05:32:54.598Z,19.38
2018-05-25T05:35:22.630Z,18.61
2018-05-25T05:37:50.603Z,19.18
2018-05-25T05:40:18.675Z,19.83
2018-05-25T05:42:46.657Z,19.88
2018-05-25T05:45:14.622Z,19.68
2018-05-25T05:47:42.630Z,20.52
2018-05-25T05:50:10.610Z,20.38
2018-05-25T05:52:38.559Z,20.29
2018-05-25T05:55:06.690Z,20.78
2018-05-25T05:57:34.610Z,20.57
2018-05-25T06:00:02.710Z,20.96
2018-05-25T06:02:30.782Z,21.54
2018-05-25T06:04:59.854Z,22.05
2018-05-25T06:07:27.987Z,21.87
2018-05-25T06:09:56.017Z,22.16
2018-05-25T06:12:24.070Z,22.14
2018-05-25T06:14:52.367Z,22.40
2018-05-25T06:17:20.511Z,22.57
2018-05-25T06:19:48.487Z,22.15
2018-05-25T06:22:16.515Z,22.74
2018-05-25T06:24:44.573Z,22.93
2018-05-25T06:27:12.600Z,23.40
2018-05-25T06:29:40.660Z,23.66
2018-05-25T06:32:08.665Z,23.58
2018-05-25T06:34:36.700Z,23.84
2018-05-25T06:40:00.584Z,24.05
2018-05-25T06:42:28.541Z,24.10
2018-05-25T06:44:57.204Z,24.19
2018-05-25T06:47:25.264Z,24.12
2018-05-25T06:49:55.568Z,23.84
2018-05-25T06:52:23.566Z,24.18
2018-05-25T06:54:51.752Z,24.12
2018-05-25T06:57:19.810Z,23.56
2018-05-25T06:59:47.840Z,23.71
2018-05-25T07:02:15.944Z,23.77
2018-05-25T07:04:44.000Z,23.82
2018-05-25T07:07:12.005Z,24.38
2018-05-25T07:09:40.009Z,24.39
2018-05-25T07:12:08.062Z,24.74
2018-05-25T07:14:36.129Z,24.93
2018-05-25T07:17:05.197Z,25.37
2018-05-25T07:19:34.125Z,25.40
2018-05-25T07:22:02.126Z,25.42
2018-05-25T07:24:30.692Z,25.03
2018-05-25T07:26:58.724Z,25.35
2018-05-25T07:29:26.744Z,25.64
2018-05-25T07:31:54.878Z,25.04
2018-05-25T07:34:22.941Z,24.90
2018-05-25T07:36:50.937Z,25.13
2018-05-25T07:39:19.267Z,25.39
2018-05-25T07:41:47.359Z,24.99
2018-05-25T07:44:15.353Z,25.37
2018-05-25T07:46:43.378Z,26.00
2018-05-25T07:49:11.405Z,25.84
2018-05-25T07:51:39.553Z,25.10
2018-05-25T07:54:07.547Z,26.02
2018-05-25T07:56:35.654Z,26.19
2018-05-25T07:59:03.642Z,26.34
2018-05-25T08:01:31.559Z,26.41
2018-05-25T08:03:59.509Z,27.31
2018-05-25T08:06:27.607Z,27.74
2018-05-25T08:08:55.617Z,27.79
2018-05-25T08:11:23.628Z,28.13
2018-05-25T08:13:51.617Z,27.73
2018-05-25T08:16:19.624Z,27.27
2018-05-25T08:18:47.825Z,27.63
2018-05-25T08:21:15.853Z,27.45
2018-05-25T08:23:43.821Z,27.65
2018-05-25T08:26:11.833Z,28.02
2018-05-25T08:28:39.942Z,28.35
2018-05-25T08:31:09.220Z,27.95
2018-05-25T08:33:37.467Z,27.43
2018-05-25T08:36:06.728Z,27.39
2018-05-25T08:41:38.662Z,28.01
2018-05-25T08:44:06.749Z,28.05
2018-05-25T08:46:36.207Z,27.62
2018-05-25T08:49:04.390Z,27.43
2018-05-25T08:51:32.537Z,26.45
2018-05-25T08:54:00.619Z,27.60
2018-05-25T08:56:28.674Z,28.46
2018-05-25T08:58:56.682Z,28.77
2018-05-25T09:01:24.699Z,29.37
2018-05-25T09:03:52.712Z,29.82
2018-05-25T09:06:20.698Z,29.68
2018-05-25T09:08:48.607Z,29.55
2018-05-25T09:11:16.697Z,28.99
2018-05-25T09:13:44.768Z,28.41
2018-05-25T09:16:12.829Z,27.73
2018-05-25T09:18:40.875Z,27.81
2018-05-25T09:21:08.900Z,27.58
2018-05-25T09:23:36.996Z,27.02
2018-05-25T09:26:04.980Z,27.58
2018-05-25T09:28:33.047Z,27.61
2018-05-25T09:31:01.054Z,27.31
2018-05-25T09:33:29.019Z,27.71
2018-05-25T09:35:57.034Z,28.27
2018-05-25T09:38:25.043Z,28.22
2018-05-25T09:40:53.142Z,28.46
2018-05-25T09:43:21.393Z,28.27
2018-05-25T09:45:49.535Z,28.01
2018-05-25T09:48:17.574Z,27.89
2018-05-25T09:50:45.582Z,27.78
2018-05-25T09:53:13.584Z,27.37
2018-05-25T09:55:41.560Z,27.27
2018-05-25T09:58:09.599Z,27.23
2018-05-25T10:00:37.548Z,27.76
2018-05-25T10:03:05.601Z,27.88
2018-05-25T10:05:33.668Z,27.17
2018-05-25T10:08:01.715Z,27.18
2018-05-25T10:10:29.739Z,27.37
2018-05-25T10:12:57.754Z,27.72
2018-05-25T10:15:25.882Z,27.58
2018-05-25T10:17:53.951Z,26.79
2018-05-25T10:20:22.015Z,27.08
2018-05-25T10:22:50.083Z,26.99
2018-05-25T10:25:18.123Z,26.86
2018-05-25T10:27:46.145Z,26.35
2018-05-25T10:30:14.171Z,26.42
2018-05-25T10:32:42.327Z,26.63
2018-05-25T10:35:10.363Z,26.69
2018-05-25T10:37:38.491Z,26.78
2018-05-25T10:40:06.545Z,26.12
2018-05-25T10:42:34.539Z,26.19
2018-05-25T10:45:02.900Z,25.79
2018-05-25T10:47:30.892Z,25.70
2018-05-25T10:49:58.933Z,25.10
2018-05-25T10:52:26.975Z,25.15
2018-05-25T10:54:55.050Z,25.24
2018-05-25T10:57:23.102Z,24.84
2018-05-25T10:59:51.276Z,23.97
2018-05-25T11:02:19.332Z,24.12
2018-05-25T11:04:47.379Z,23.55
2018-05-25T11:07:15.380Z,23.68
2018-05-25T11:09:43.440Z,23.54
2018-05-25T11:12:11.547Z,23.29
2018-05-25T11:14:39.641Z,23.06
2018-05-25T11:17:07.766Z,22.87
2018-05-25T11:19:35.815Z,22.78
2018-05-25T11:22:03.863Z,22.96
2018-05-25T11:24:31.926Z,22.95
2018-05-25T11:26:59.971Z,23.11
2018-05-25T11:29:28.045Z,22.76
2018-05-25T11:31:56.119Z,22.65
2018-05-25T11:34:24.953Z,22.24
2018-05-25T11:36:52.973Z,22.30
2018-05-25T11:39:21.039Z,22.49
2018-05-25T11:41:49.113Z,22.65
2018-05-25T11:44:17.174Z,22.83
2018-05-25T11:46:45.723Z,22.43
2018-05-25T11:49:13.743Z,22.39
2018-05-25T11:51:41.777Z,22.62
2018-05-25T11:54:09.816Z,22.87
2018-05-25T11:56:37.852Z,23.18
2018-05-25T11:59:05.798Z,23.38
2018-05-25T12:01:33.799Z,23.51
2018-05-25T12:04:01.837Z,23.47
2018-05-25T12:06:29.886Z,23.63
2018-05-25T12:08:57.914Z,23.96
2018-05-25T12:11:25.923Z,23.84
2018-05-25T12:13:54.010Z,23.79
2018-05-25T12:16:22.072Z,23.86
2018-05-25T12:18:50.084Z,24.05
2018-05-25T12:21:18.108Z,24.51
2018-05-25T12:23:46.158Z,23.97
2018-05-25T12:26:14.162Z,24.41
2018-05-25T12:28:42.258Z,24.52
2018-05-25T12:31:10.265Z,24.79
2018-05-25T12:33:38.369Z,25.09
2018-05-25T12:36:06.808Z,25.34
2018-05-25T12:38:34.773Z,25.11
2018-05-25T12:41:02.833Z,24.43
2018-05-25T12:43:30.883Z,25.34
2018-05-25T12:45:58.898Z,25.94
2018-05-25T12:48:27.307Z,24.57
2018-05-25T12:50:55.343Z,24.75
2018-05-25T12:53:23.377Z,24.25
2018-05-25T12:55:51.454Z,24.63
2018-05-25T12:58:19.483Z,24.94
2018-05-25T13:00:47.527Z,24.76
2018-05-25T13:03:15.520Z,24.98
2018-05-25T13:05:43.549Z,25.54
2018-05-25T13:08:11.543Z,25.60
2018-05-25T13:10:39.575Z,25.79
2018-05-25T13:13:07.605Z,25.79
2018-05-25T13:15:35.720Z,25.43
2018-05-25T13:18:04.353Z,25.56
2018-05-25T13:20:32.943Z,25.48
2018-05-25T13:23:01.602Z,26.47
2018-05-25T13:25:30.007Z,25.85
2018-05-25T13:27:58.574Z,26.21
2018-05-25T13:30:27.256Z,25.89
2018-05-25T13:32:55.286Z,25.79
2018-05-25T13:35:23.328Z,25.93
2018-05-25T13:37:51.393Z,25.83
2018-05-25T13:40:19.429Z,25.78
2018-05-25T13:42:47.508Z,25.99
2018-05-25T13:45:15.640Z,26.19
2018-05-25T13:47:44.303Z,26.01
2018-05-25T13:50:12.595Z,25.59
2018-05-25T13:52:40.656Z,25.41
2018-05-25T13:55:16.015Z,25.39
2018-05-25T13:57:45.341Z,25.32
2018-05-25T14:00:15.733Z,25.86
2018-05-25T14:02:44.146Z,25.76
2018-05-25T14:05:12.200Z,26.34
2018-05-25T14:07:41.150Z,25.51
2018-05-25T14:10:09.206Z,25.88
2018-05-25T14:12:37.253Z,26.14
2018-05-25T14:15:05.330Z,26.19
2018-05-25T14:17:33.374Z,26.06
2018-05-25T14:20:01.413Z,26.35
2018-05-25T14:22:29.478Z,25.86
2018-05-25T14:24:57.644Z,25.35
2018-05-25T14:27:25.670Z,25.04
2018-05-25T14:29:53.685Z,25.39
2018-05-25T14:32:21.719Z,25.24
2018-05-25T14:34:49.829Z,25.01
2018-05-25T14:37:17.903Z,24.72
2018-05-25T14:39:46.028Z,24.61
2018-05-25T14:42:14.051Z,24.55
2018-05-25T14:44:42.006Z,24.58
2018-05-25T14:47:10.041Z,24.89
2018-05-25T14:49:38.047Z,25.24
2018-05-25T14:52:07.005Z,25.48
2018-05-25T14:54:35.011Z,25.46
2018-05-25T14:57:03.045Z,25.47
2018-05-25T14:59:31.045Z,25.07
2018-05-25T15:01:59.739Z,24.92
2018-05-25T15:04:27.802Z,24.81
2018-05-25T15:06:55.849Z,24.30
2018-05-25T15:09:23.891Z,24.78
2018-05-25T15:11:51.935Z,23.89
2018-05-25T15:14:19.906Z,24.14
2018-05-25T15:16:47.902Z,24.25
2018-05-25T15:19:15.958Z,24.40
2018-05-25T15:21:43.963Z,23.82
2018-05-25T15:24:12.016Z,23.86
2018-05-25T15:26:40.080Z,23.96
2018-05-25T15:29:08.083Z,24.02
2018-05-25T15:31:36.135Z,24.76
2018-05-25T15:34:04.162Z,25.24
2018-05-25T15:36:32.252Z,24.84
2018-05-25T15:39:00.282Z,25.41
2018-05-25T15:41:28.300Z,25.58
2018-05-25T15:43:56.293Z,25.68
2018-05-25T15:46:24.356Z,25.58
2018-05-25T15:48:52.384Z,25.43
2018-05-25T15:51:20.404Z,25.54
2018-05-25T15:53:48.560Z,25.54
2018-05-25T15:56:16.659Z,25.68
2018-05-25T15:58:44.711Z,25.67
2018-05-25T16:01:12.798Z,25.80
2018-05-25T16:03:40.818Z,25.81
2018-05-25T16:06:08.810Z,25.78
2018-05-25T16:08:36.920Z,25.55
2018-05-25T16:11:05.039Z,24.45
2018-05-25T16:13:33.067Z,24.27
2018-05-25T16:16:01.128Z,24.19
2018-05-25T16:18:29.195Z,24.32
2018-05-25T16:20:57.156Z,23.72
2018-05-25T16:23:25.633Z,22.69
2018-05-25T16:25:53.734Z,22.31
2018-05-25T16:28:22.893Z,23.06
2018-05-25T16:30:51.027Z,22.22
2018-05-25T16:33:19.104Z,22.04
2018-05-25T16:35:47.223Z,21.48
2018-05-25T16:38:15.303Z,21.17
2018-05-25T16:40:43.351Z,21.11
2018-05-25T16:43:11.398Z,20.71
2018-05-25T16:45:39.514Z,20.62
2018-05-25T16:48:07.631Z,20.50
2018-05-25T16:50:35.790Z,20.59
2018-05-25T16:53:03.936Z,20.87
2018-05-25T16:55:32.434Z,20.94
2018-05-25T16:58:00.450Z,21.11
2018-05-25T17:00:28.583Z,21.00
2018-05-25T17:02:56.619Z,21.39
2018-05-25T17:05:24.673Z,21.83
2018-05-25T17:07:53.443Z,22.15
2018-05-25T17:10:21.444Z,22.09
2018-05-25T17:12:49.530Z,22.14
2018-05-25T17:15:17.529Z,22.13
2018-05-25T17:17:45.560Z,21.73
2018-05-25T17:20:13.591Z,21.96
2018-05-25T17:22:41.596Z,21.52
2018-05-25T17:25:09.587Z,21.13
2018-05-25T17:27:37.603Z,21.08
2018-05-25T17:30:05.672Z,20.94
2018-05-25T17:32:33.704Z,20.95
2018-05-25T17:35:01.734Z,21.15
2018-05-25T17:37:29.833Z,21.37
2018-05-25T17:39:57.854Z,21.19
2018-05-25T17:42:25.987Z,20.91
2018-05-25T17:44:53.991Z,21.07
2018-05-25T17:47:21.988Z,20.86
2018-05-25T17:49:49.950Z,21.09
2018-05-25T17:52:18.035Z,21.31
2018-05-25T17:54:45.977Z,21.17
2018-05-25T17:57:14.473Z,21.16
2018-05-25T17:59:42.497Z,21.20
2018-05-25T18:02:10.555Z,21.40
2018-05-25T18:04:38.608Z,21.39
2018-05-25T18:07:06.517Z,21.03
2018-05-25T18:09:34.557Z,20.44
2018-05-25T18:12:02.566Z,20.72
2018-05-25T18:14:30.537Z,20.94
2018-05-25T18:16:58.563Z,21.27
2018-05-25T18:19:26.590Z,20.72
2018-05-25T18:21:54.604Z,21.15
2018-05-25T18:24:22.642Z,21.30
2018-05-25T18:26:50.614Z,21.30
2018-05-25T18:29:18.625Z,21.36
2018-05-25T18:31:46.786Z,21.44
2018-05-25T18:34:14.813Z,21.51
2018-05-25T18:36:42.840Z,20.79
2018-05-25T18:39:10.827Z,20.42
2018-05-25T18:41:38.783Z,20.71
2018-05-25T18:44:06.885Z,21.12
2018-05-25T18:46:34.817Z,20.92
2018-05-25T18:49:02.867Z,20.56
2018-05-25T18:51:30.922Z,20.48
2018-05-25T18:54:10.550Z,20.54
2018-05-25T18:56:39.465Z,20.82
2018-05-25T18:59:07.726Z,20.48
2018-05-25T19:01:35.699Z,20.26
2018-05-25T19:04:03.726Z,20.02
2018-05-25T19:06:31.795Z,20.64
2018-05-25T19:08:59.784Z,20.82
2018-05-25T19:11:27.803Z,21.00
2018-05-25T19:13:55.838Z,21.07
2018-05-25T19:16:23.854Z,20.47
2018-05-25T19:18:52.007Z,20.30
2018-05-25T19:21:20.032Z,20.62
2018-05-25T19:23:48.003Z,20.89
2018-05-25T19:26:16.116Z,21.04
2018-05-25T19:28:44.239Z,21.08
2018-05-25T19:31:12.218Z,20.47
2018-05-25T19:33:40.091Z,20.00
2018-05-25T19:36:08.193Z,20.14
2018-05-25T19:38:36.346Z,20.54
2018-05-25T19:41:04.341Z,20.54
2018-05-25T19:43:32.381Z,20.19
2018-05-25T19:46:00.401Z,19.87
2018-05-25T19:48:28.381Z,20.17
2018-05-25T19:50:56.389Z,20.47
2018-05-25T19:53:24.452Z,20.23
2018-05-25T19:55:52.417Z,20.34
2018-05-25T19:58:20.437Z,20.49
2018-05-25T20:00:48.670Z,20.42
2018-05-25T20:03:16.698Z,20.00
2018-05-25T20:05:44.745Z,19.81
2018-05-25T20:08:12.718Z,19.78
2018-05-25T20:10:40.715Z,19.85
2018-05-25T20:13:08.823Z,20.14
2018-05-25T20:15:36.946Z,20.21
2018-05-25T20:18:05.053Z,20.30
2018-05-25T20:20:33.107Z,20.19
2018-05-25T20:23:01.091Z,20.07
2018-05-25T20:25:29.092Z,20.08
2018-05-25T20:27:57.047Z,19.71
2018-05-25T20:30:25.074Z,19.20
2018-05-25T20:32:57.201Z,18.82
2018-05-25T20:35:25.202Z,18.36
2018-05-25T20:37:53.166Z,18.48
2018-05-25T20:40:21.124Z,18.46
2018-05-25T20:42:49.119Z,18.26
2018-05-25T20:45:17.107Z,18.23
2018-05-25T20:47:45.084Z,19.05
2018-05-25T20:50:13.036Z,19.38
2018-05-25T20:52:41.023Z,19.71
2018-05-25T20:55:09.065Z,19.23
2018-05-25T20:57:37.083Z,19.38
2018-05-25T21:00:05.117Z,18.76
2018-05-25T21:02:33.392Z,18.66
2018-05-25T21:05:01.477Z,18.90
2018-05-25T21:07:29.467Z,18.70
2018-05-25T21:09:57.516Z,18.26
2018-05-25T21:12:25.617Z,18.53
2018-05-25T21:14:53.703Z,18.70
2018-05-25T21:17:22.607Z,18.99
2018-05-25T21:19:50.557Z,19.47
2018-05-25T21:22:18.556Z,19.55
2018-05-25T21:24:46.550Z,19.85
2018-05-25T21:27:14.564Z,19.06
2018-05-25T21:29:42.573Z,18.89
2018-05-25T21:32:10.631Z,19.38
2018-05-25T21:34:38.646Z,19.03
2018-05-25T21:37:06.640Z,19.49
2018-05-25T21:39:34.641Z,18.92
2018-05-25T21:42:02.631Z,19.00
2018-05-25T21:44:30.656Z,19.29
2018-05-25T21:46:58.658Z,19.05
2018-05-25T21:49:26.637Z,18.40
2018-05-25T21:51:54.669Z,18.27
2018-05-25T21:54:22.661Z,18.79
2018-05-25T21:56:50.779Z,19.23
2018-05-25T21:59:18.754Z,19.40
2018-05-25T22:01:46.795Z,19.53
2018-05-25T22:04:14.872Z,19.52
2018-05-25T22:06:42.867Z,19.58
2018-05-25T22:09:10.849Z,19.27
2018-05-25T22:11:38.897Z,18.65
2018-05-25T22:14:06.997Z,18.37
2018-05-25T22:16:35.134Z,18.36
2018-05-25T22:19:03.030Z,18.51
2018-05-25T22:21:30.998Z,18.53
2018-05-25T22:23:59.019Z,18.71
2018-05-25T22:26:27.076Z,18.34
2018-05-25T22:28:55.088Z,18.69
2018-05-25T22:31:23.066Z,18.48
2018-05-25T22:33:51.051Z,18.31
2018-05-25T22:36:19.019Z,18.47
2018-05-25T22:38:47.071Z,18.66
2018-05-25T22:41:15.083Z,18.61
2018-05-25T22:43:54.713Z,18.05
2018-05-25T22:46:35.264Z,18.73
2018-05-25T22:49:14.922Z,18.61
2018-05-25T22:51:54.693Z,18.53
2018-05-25T22:54:36.118Z,18.59
2018-05-25T22:57:04.084Z,18.63
2018-05-25T22:59:32.115Z,18.38
2018-05-25T23:02:00.139Z,18.46
2018-05-25T23:04:28.904Z,18.53
2018-05-25T23:06:56.825Z,18.52
2018-05-25T23:09:24.900Z,18.30
2018-05-25T23:11:52.893Z,18.34
2018-05-25T23:14:20.859Z,18.44
2018-05-25T23:16:48.845Z,18.47
2018-05-25T23:19:16.926Z,17.94
2018-05-25T23:21:45.041Z,17.39
2018-05-25T23:24:12.952Z,17.53
2018-05-25T23:26:41.019Z,17.15
2018-05-25T23:29:08.990Z,17.59
2018-05-25T23:31:37.002Z,18.00
2018-05-25T23:34:04.966Z,18.20
2018-05-25T23:36:32.903Z,18.26
2018-05-25T23:39:00.914Z,17.85
2018-05-25T23:41:28.929Z,17.05
2018-05-25T23:43:56.910Z,17.46
2018-05-25T23:46:24.943Z,17.87
2018-05-25T23:48:52.975Z,18.00
2018-05-25T23:51:20.969Z,17.89
2018-05-25T23:53:48.999Z,17.58
2018-05-25T23:56:17.051Z,17.23
2018-05-25T23:58:45.068Z,17.02
